Portada
METAR-TAF:

METAR-TAF

Aeroports :

Bhavnagar, Índia

latitud: 21-45-08N, longitud: 72-11-07E, altitud: 6 m

Observació

L'informe es va fer fa 6 hores i 46 minuts, a les 12:00 UTC
Vent 8 kt del Nord/Nord-Oest
Temperatura 29°C
Humitat 43%
Pressió 1009 hPa
Visibilitat: 4500 m
Escasses núvols a una alçada de 2500 ft
fum,

METAR: VABV 261200Z 34008KT 4500 FU FEW025 29/15 Q1009

Hora: 00:16 (18:46 UTC)

Pronòstic

L'informe es va fer fa 1 hora i 46 minuts, a les 17:00 UTC
Pronòstic vàlid del 26 a les 18 UTC al 27 a les 03 UTC
Vent 5 kt del Sud/Sud-Oest
Visibilitat: 4000 m
calitja, fum
Evolucionant progressivament
l' 26 a les 20 UTC al 26 a les 22 UTC
Vent 5 kt del Oest
Evolucionant progressivament
l' 27 a les 01 UTC al 27 a les 03 UTC
Vent 5 kt del Nord/Nord-Oest
Visibilitat: 2000 m
calitja, fum,

TAF: VABV 261700Z 2618/2703 20005KT 4000 HZ FU NSC BECMG 2620/2622 27005KT BECMG 2701/2703 34005KT 2000 HZ FU

Observacions i pronòstics meteorològics de més de 4000 aeroports (METAR i TAF).

Les estacions disponibles són els punts grocs i vermells al mapa.

Posi el ratolí al punt desitjat per veure el nom de l'estació.

Feu clic per veure les observacions i els pronòstics meteorològics.

Per canviar el mapa: feu clic els botons verds amb una creu de color negre per apropar; al botó verd amb un guió per allunyar la imatge; o en les fletxes verdes per a mapes adjacents.


METAR-TAF: